createdAt,value
2022-09-23T05:19:11.891Z,100.00
2022-09-23T05:21:40.306Z,100.00
2022-09-23T05:24:08.898Z,100.00
2022-09-23T05:26:36.561Z,100.00
2022-09-23T05:29:04.477Z,100.00
2022-09-23T05:31:32.544Z,100.00
2022-09-23T05:34:03.650Z,100.00
2022-09-23T05:36:37.114Z,100.00
2022-09-23T05:39:06.560Z,100.00
2022-09-23T05:41:34.655Z,100.00
2022-09-23T05:44:02.737Z,100.00
2022-09-23T05:46:31.188Z,100.00
2022-09-23T05:49:02.458Z,100.00
2022-09-23T05:51:31.709Z,100.00
2022-09-23T05:54:00.268Z,100.00
2022-09-23T05:56:28.397Z,100.00
2022-09-23T05:58:57.704Z,100.00
2022-09-23T06:01:29.435Z,100.00
2022-09-23T06:03:57.885Z,100.00
2022-09-23T06:06:36.582Z,100.00
2022-09-23T06:09:05.275Z,100.00
2022-09-23T06:11:34.613Z,100.00
2022-09-23T06:14:02.985Z,100.00
2022-09-23T06:16:32.758Z,100.00
2022-09-23T06:19:05.873Z,100.00
2022-09-23T06:21:36.081Z,100.00
2022-09-23T06:24:04.719Z,100.00
2022-09-23T06:26:35.660Z,100.00
2022-09-23T06:29:04.192Z,100.00
2022-09-23T06:31:33.122Z,100.00
2022-09-23T06:34:12.402Z,100.00
2022-09-23T06:36:45.103Z,96.42
2022-09-23T06:39:14.985Z,97.77
2022-09-23T06:41:44.893Z,99.31
2022-09-23T06:44:14.176Z,93.91
2022-09-23T06:46:42.076Z,90.85
2022-09-23T06:49:12.637Z,91.73
2022-09-23T06:51:40.367Z,97.91
2022-09-23T06:54:08.514Z,98.83
2022-09-23T06:56:39.566Z,94.78
2022-09-23T06:59:09.363Z,94.28
2022-09-23T07:01:37.187Z,91.20
2022-09-23T07:04:05.291Z,98.05
2022-09-23T07:06:33.275Z,95.78
2022-09-23T07:09:01.232Z,90.33
2022-09-23T07:11:29.212Z,90.66
2022-09-23T07:13:57.163Z,84.69
2022-09-23T07:16:25.278Z,88.45
2022-09-23T07:18:53.656Z,94.72
2022-09-23T07:21:21.627Z,97.97
2022-09-23T07:23:50.487Z,96.54
2022-09-23T07:26:19.181Z,90.73
2022-09-23T07:28:47.254Z,85.00
2022-09-23T07:31:24.277Z,89.16
2022-09-23T07:33:57.932Z,81.81
2022-09-23T07:36:28.021Z,85.62
2022-09-23T07:39:00.775Z,86.24
2022-09-23T07:41:29.083Z,73.94
2022-09-23T07:43:59.067Z,59.81
2022-09-23T07:46:28.187Z,55.32
2022-09-23T07:48:56.033Z,50.44
2022-09-23T07:51:26.523Z,52.71
2022-09-23T07:53:54.697Z,55.72
2022-09-23T07:56:25.549Z,50.82
2022-09-23T07:59:04.651Z,51.13
2022-09-23T08:01:39.532Z,47.97
2022-09-23T08:04:21.291Z,50.55
2022-09-23T08:06:54.102Z,44.47
2022-09-23T08:09:23.714Z,45.52
2022-09-23T08:11:51.684Z,45.21
2022-09-23T08:14:22.415Z,51.44
2022-09-23T08:16:50.260Z,53.27
2022-09-23T08:19:18.051Z,54.29
2022-09-23T08:21:47.635Z,55.13
2022-09-23T08:24:16.953Z,52.98
2022-09-23T08:26:45.433Z,58.96
2022-09-23T08:29:14.252Z,57.22
2022-09-23T08:31:42.626Z,55.56
2022-09-23T08:34:10.567Z,56.45
2022-09-23T08:36:38.508Z,61.21
2022-09-23T08:39:06.632Z,56.98
2022-09-23T08:41:58.832Z,54.74
2022-09-23T08:44:45.973Z,66.93
2022-09-23T08:47:43.858Z,58.34
2022-09-23T08:50:19.226Z,56.62
2022-09-23T08:52:55.293Z,56.03
2022-09-23T08:55:35.807Z,55.20
2022-09-23T08:58:24.441Z,55.78
2022-09-23T09:01:10.751Z,56.55
2022-09-23T09:03:53.827Z,65.17
2022-09-23T09:06:31.170Z,67.66
2022-09-23T09:09:01.064Z,64.93
2022-09-23T09:11:35.344Z,58.25
2022-09-23T09:14:17.622Z,56.15
2022-09-23T09:16:59.420Z,55.15
2022-09-23T09:19:52.650Z,53.61
2022-09-23T09:22:41.612Z,52.24
2022-09-23T09:25:15.645Z,51.28
2022-09-23T09:27:43.714Z,49.53
2022-09-23T09:30:14.753Z,50.60
2022-09-23T09:33:03.031Z,55.66
2022-09-23T09:35:55.032Z,60.77
2022-09-23T09:38:23.010Z,55.92
2022-09-23T09:40:50.787Z,51.63
2022-09-23T09:43:25.584Z,51.26
2022-09-23T09:45:59.285Z,53.34
2022-09-23T09:48:39.946Z,52.00
2022-09-23T09:51:24.315Z,50.30
2022-09-23T09:53:52.698Z,50.01
2022-09-23T09:56:42.183Z,58.90
2022-09-23T09:59:18.543Z,59.27
2022-09-23T10:01:46.957Z,61.38
2022-09-23T10:04:29.494Z,58.59
2022-09-23T10:07:09.916Z,53.78
2022-09-23T10:09:38.412Z,51.95
2022-09-23T10:12:18.713Z,48.66
2022-09-23T10:14:47.391Z,49.38
2022-09-23T10:17:17.944Z,50.00
2022-09-23T10:20:00.997Z,54.57
2022-09-23T10:22:39.077Z,53.68
2022-09-23T10:25:16.506Z,58.19
2022-09-23T10:27:45.642Z,58.04
2022-09-23T10:30:26.546Z,59.69
2022-09-23T10:32:57.417Z,59.48
2022-09-23T10:35:25.557Z,58.88
2022-09-23T10:37:57.254Z,61.31
2022-09-23T10:44:11.511Z,57.68
2022-09-23T10:46:49.421Z,54.42
2022-09-23T10:49:38.909Z,52.62
2022-09-23T10:52:12.290Z,50.23
2022-09-23T10:54:51.861Z,51.66
2022-09-23T10:57:40.758Z,55.36
2022-09-23T11:00:17.930Z,56.74
2022-09-23T11:03:00.874Z,56.24
2022-09-23T11:05:37.700Z,54.42
2022-09-23T11:08:18.432Z,52.65
2022-09-23T11:11:16.995Z,52.47
2022-09-23T11:14:17.358Z,51.45
2022-09-23T11:17:22.253Z,48.19
2022-09-23T11:20:21.391Z,48.10
2022-09-23T11:22:48.978Z,46.86
2022-09-23T11:25:30.346Z,45.08
2022-09-23T11:28:23.316Z,46.47
2022-09-23T11:31:14.724Z,46.86
2022-09-23T11:33:42.618Z,47.24
2022-09-23T11:36:14.813Z,46.91
2022-09-23T11:38:45.106Z,47.06
2022-09-23T11:41:20.335Z,47.27
2022-09-23T11:43:52.402Z,45.71
2022-09-23T11:46:32.874Z,43.88
2022-09-23T11:49:27.247Z,44.98
2022-09-23T11:52:13.104Z,44.49
2022-09-23T11:54:45.448Z,42.63
2022-09-23T11:57:29.582Z,41.83
2022-09-23T12:00:06.949Z,41.11
2022-09-23T12:02:42.046Z,40.21
2022-09-23T12:05:13.098Z,41.82
2022-09-23T12:07:40.783Z,41.32
2022-09-23T12:10:08.735Z,41.76
2022-09-23T12:12:39.079Z,40.83
2022-09-23T12:15:39.560Z,39.99
2022-09-23T12:18:23.410Z,39.63
2022-09-23T12:21:06.245Z,39.41
2022-09-23T12:23:48.889Z,39.72
2022-09-23T12:26:19.067Z,40.75
2022-09-23T12:28:49.997Z,41.19
2022-09-23T12:31:22.204Z,42.55
2022-09-23T12:33:53.770Z,41.38
2022-09-23T12:36:35.561Z,40.63
2022-09-23T12:39:17.578Z,40.81
2022-09-23T12:41:49.314Z,40.71
2022-09-23T12:44:23.422Z,41.87
2022-09-23T12:47:14.154Z,43.50
2022-09-23T12:49:42.748Z,43.63
2022-09-23T12:52:13.675Z,42.34
2022-09-23T12:54:42.551Z,42.01
2022-09-23T12:57:39.862Z,42.87
2022-09-23T13:00:11.380Z,42.99
2022-09-23T13:03:20.647Z,42.46
2022-09-23T13:06:11.283Z,42.48
2022-09-23T13:08:40.523Z,42.36
2022-09-23T13:11:28.563Z,43.90
2022-09-23T13:13:57.957Z,43.75
2022-09-23T13:16:30.387Z,43.50
2022-09-23T13:19:24.227Z,43.31
2022-09-23T13:21:55.047Z,42.11
2022-09-23T13:24:22.813Z,42.70
2022-09-23T13:26:54.466Z,44.06
2022-09-23T13:29:27.682Z,44.62
2022-09-23T13:31:57.992Z,46.16
2022-09-23T13:34:27.709Z,47.46
2022-09-23T13:36:55.276Z,47.44
2022-09-23T13:39:24.728Z,45.66
2022-09-23T13:42:03.031Z,45.21
2022-09-23T13:44:30.858Z,45.77
2022-09-23T13:46:59.511Z,46.22
2022-09-23T13:49:35.417Z,45.77
2022-09-23T13:52:03.313Z,46.01
2022-09-23T13:54:47.261Z,46.35
2022-09-23T13:57:34.609Z,47.56
2022-09-23T14:00:16.600Z,48.09
2022-09-23T14:02:44.480Z,47.53
2022-09-23T14:05:13.262Z,49.87
2022-09-23T14:07:40.989Z,50.62
2022-09-23T14:10:08.798Z,50.62
2022-09-23T14:12:39.528Z,51.79
2022-09-23T14:15:14.015Z,53.52
2022-09-23T14:17:46.034Z,57.19
2022-09-23T14:20:17.522Z,58.82
2022-09-23T14:22:45.327Z,59.90
2022-09-23T14:25:14.614Z,59.81
2022-09-23T14:27:42.552Z,58.17
2022-09-23T14:30:18.012Z,56.31
2022-09-23T14:32:47.997Z,55.13
2022-09-23T14:35:20.239Z,50.50
2022-09-23T14:38:08.540Z,50.66
2022-09-23T14:40:53.592Z,54.95
2022-09-23T14:43:24.014Z,56.76
2022-09-23T14:45:56.481Z,59.95
2022-09-23T14:48:28.214Z,61.77
2022-09-23T14:51:00.496Z,62.02
2022-09-23T14:53:39.936Z,62.61
2022-09-23T14:56:08.702Z,64.94
2022-09-23T14:58:56.494Z,66.81
2022-09-23T15:01:27.866Z,68.58
2022-09-23T15:04:00.008Z,68.53
2022-09-23T15:06:27.640Z,69.42
2022-09-23T15:08:55.599Z,71.11
2022-09-23T15:11:23.355Z,71.60
2022-09-23T15:13:51.797Z,71.73
2022-09-23T15:16:28.610Z,72.09
2022-09-23T15:19:00.064Z,73.06
2022-09-23T15:21:41.093Z,75.12
2022-09-23T15:24:38.400Z,76.46
2022-09-23T15:27:29.693Z,77.83
2022-09-23T15:30:15.589Z,79.98
2022-09-23T15:32:44.910Z,80.00
2022-09-23T15:35:18.856Z,81.90
2022-09-23T15:37:47.304Z,84.16
2022-09-23T15:40:26.262Z,85.96
2022-09-23T15:42:58.722Z,88.02
2022-09-23T15:45:32.055Z,89.38
2022-09-23T15:48:07.459Z,89.96
2022-09-23T15:50:36.109Z,90.66
2022-09-23T15:53:04.874Z,90.67
2022-09-23T15:55:33.779Z,89.87
2022-09-23T15:58:01.367Z,91.50
2022-09-23T16:00:29.433Z,93.89
2022-09-23T16:02:57.039Z,96.51
2022-09-23T16:05:37.836Z,98.46
2022-09-23T16:08:09.041Z,100.00
2022-09-23T16:10:37.554Z,100.00
2022-09-23T16:13:13.126Z,100.00
2022-09-23T16:15:40.916Z,100.00
2022-09-23T16:18:09.496Z,100.00
2022-09-23T16:20:38.937Z,100.00
2022-09-23T16:23:08.957Z,100.00
2022-09-23T16:25:36.773Z,100.00
2022-09-23T16:28:04.822Z,100.00
2022-09-23T16:30:33.599Z,100.00
2022-09-23T16:33:02.122Z,100.00
2022-09-23T16:35:39.045Z,100.00
2022-09-23T16:38:07.792Z,100.00
2022-09-23T16:40:35.526Z,100.00
2022-09-23T16:43:05.526Z,100.00
2022-09-23T16:45:33.460Z,100.00
2022-09-23T16:48:01.433Z,100.00
2022-09-23T16:50:29.712Z,100.00
2022-09-23T16:52:57.488Z,100.00
2022-09-23T16:55:25.801Z,100.00
2022-09-23T16:57:54.238Z,100.00
2022-09-23T17:00:40.973Z,100.00
2022-09-23T17:03:29.472Z,100.00
2022-09-23T17:05:57.501Z,100.00
2022-09-23T17:08:25.106Z,100.00
2022-09-23T17:10:58.642Z,100.00
2022-09-23T17:13:27.329Z,100.00
2022-09-23T17:15:55.146Z,100.00
2022-09-23T17:18:23.117Z,100.00
2022-09-23T17:21:03.906Z,100.00
2022-09-23T17:23:33.590Z,100.00
2022-09-23T17:26:01.770Z,100.00
2022-09-23T17:28:29.400Z,100.00
